Αρχική σελίδα
METAR-TAF:

METAR-TAF

Αεροδρόμια :

Livermore Municipal Airport

Livermore, Καλιφόρνια, Ηνωμένες Πολιτείες Αμερικής

γεωγραφικό πλάτος: 37-41-34N, γεωγραφικό μήκος: 121-48-52W, υψόμετρο: 121 μ

Παρών καιρός

Η αναφορά έγινε 33 λεπτά πριν, στις 07:53 UTC
Άνεμος 3 kt από Α/NA
Θερμοκρασία 19°C
Υγρασία 64%
Πίεση 1011 hPa
Ορατότητα: 16.1 χλμ
Καθαρός ουρανός

METAR: KLVK 200753Z AUTO 12003KT 10SM CLR 19/12 A2986 RMK AO2 SLP106 T01890117 403670156

Χρόνος: 01:26 (08:26 UTC)

Πρόγνωση Καιρού

Η αναφορά έγινε 2 ώρες και 47 λεπτά πριν, στις 05:39 UTC
Η πρόγνωση ισχύει από τις 20 στις 06 UTC έως τις 21 στις 06 UTC
Άνεμος 5 kt από Δ/BΔ
Ορατότητα: 10 χλμ
Καθαρός ουρανός
Από 20 στις 2100 UTC
Άνεμος 11 kt από Δ
Ορατότητα: 10 χλμ
Διάσπαρτα νέφη σε ύψος 18000 πόδια

TAF: KLVK 200539Z 2006/2106 29005KT P6SM SKC FM202100 28011KT P6SM SCT180

Μετεωρολογικές αναφορές και προγνώσεις για περισσότερα από 4000 αεροδρόμια (δελτία METAR και TAF).

Οι διαθέσιμοι σταθμοί απεικονίζονται στο χάρτη με κίτρινες και κόκκινες κουκκίδες.

Μετακινήστε το ποντίκι πάνω από τις κουκκίδες για να δείτε το όνομα του σταθμού.

Στη συνέχεια, κάντε κλικ για να δείτε τις μετεωρολογικές αναφορές και τις προγνώσεις καιρού.

Για να αλλάξετε το χάρτη: κάντε κλικ στα πράσινα κουμπιά με τον μαύρο σταυρό για να ζουμάρετε, στο πράσινο κουμπί με την παύλα για να αφαιρέσετε το ζουμ ή στα πράσινα βέλη για να αντιπαραβάλλετε χάρτες.


METAR-TAF: